Time;durP1;ratioP1;P1;durP2;ratioP2;P2;SDS_P1;SDS_P2;PMS_P1;PMS_P2;Temp;Humidity;BMP_temperature;BMP_pressure;BME280_temperature;BME280_humidity;BME280_pressure;Samples;Min_cycle;Max_cycle;Signal;HPM_P1;HPM_P2
2023/05/25 00:01:29;;;;;;;15.45;7.30;;;6.50;99.90;;;;;;5104352;28;20415;-28
2023/05/25 00:03:55;;;;;;;13.93;6.15;;;6.50;99.90;;;;;;5095886;28;20051;-28
2023/05/25 00:06:21;;;;;;;12.25;5.60;;;6.50;99.90;;;;;;5106684;28;20429;-28
2023/05/25 00:08:50;;;;;;;11.60;5.00;;;6.40;99.90;;;;;;5106535;28;20047;-28
2023/05/25 00:11:18;;;;;;;12.30;5.65;;;6.40;99.90;;;;;;5108741;28;20066;-28
2023/05/25 00:13:44;;;;;;;12.73;5.10;;;6.40;99.90;;;;;;5085660;28;20040;-28
2023/05/25 00:16:09;;;;;;;15.55;5.70;;;6.20;99.90;;;;;;5106456;28;20113;-28
2023/05/25 00:18:36;;;;;;;10.95;5.18;;;6.30;99.90;;;;;;5107624;28;20036;-28
2023/05/25 00:21:05;;;;;;;13.95;6.07;;;6.20;99.90;;;;;;5107518;28;20427;-28
2023/05/25 00:23:31;;;;;;;11.68;5.75;;;6.10;99.90;;;;;;5107286;28;20054;-29
2023/05/25 00:25:58;;;;;;;16.60;6.18;;;6.00;99.90;;;;;;5109610;28;20498;-28
2023/05/25 00:28:23;;;;;;;12.50;6.07;;;5.90;99.90;;;;;;5108478;28;20052;-29
2023/05/25 00:30:49;;;;;;;16.52;6.90;;;5.90;99.90;;;;;;5102340;28;20040;-28
2023/05/25 00:33:15;;;;;;;12.43;6.15;;;5.80;99.90;;;;;;5105042;28;20063;-28
2023/05/25 00:35:42;;;;;;;14.35;6.30;;;5.80;99.90;;;;;;5106117;28;20487;-28
2023/05/25 00:38:17;;;;;;;16.23;6.25;;;5.80;99.90;;;;;;5107827;28;20048;-27
2023/05/25 00:40:43;;;;;;;14.40;5.63;;;5.80;99.90;;;;;;5105110;28;20482;-28
2023/05/25 00:43:09;;;;;;;23.58;8.23;;;5.90;99.90;;;;;;5107896;28;20071;-28
2023/05/25 00:45:35;;;;;;;18.70;6.18;;;6.10;99.90;;;;;;5109020;28;20128;-28
2023/05/25 00:48:02;;;;;;;15.88;6.85;;;6.20;99.90;;;;;;5108814;28;20085;-27
2023/05/25 00:50:40;;;;;;;21.08;7.80;;;6.30;99.90;;;;;;5108281;28;20113;-28
2023/05/25 00:53:07;;;;;;;22.38;8.38;;;6.30;99.90;;;;;;5101281;28;20501;-27
2023/05/25 00:55:47;;;;;;;18.77;7.90;;;6.30;99.90;;;;;;5105680;28;20162;-28
2023/05/25 00:58:16;;;;;;;17.10;6.82;;;6.30;99.90;;;;;;5107401;28;20075;-26
2023/05/25 01:00:45;;;;;;;22.15;7.20;;;6.30;99.90;;;;;;5109693;28;20079;-28
2023/05/25 01:03:16;;;;;;;21.98;6.85;;;6.20;99.90;;;;;;5124400;27;20062;-26
2023/05/25 01:05:46;;;;;;;14.57;6.70;;;6.20;99.90;;;;;;5106026;28;20040;-29
2023/05/25 01:08:13;;;;;;;18.63;6.90;;;6.10;99.90;;;;;;5109474;28;20040;-28
2023/05/25 01:10:41;;;;;;;21.08;8.07;;;6.10;99.90;;;;;;5106259;28;20039;-28
2023/05/25 01:13:08;;;;;;;17.45;7.32;;;6.10;99.90;;;;;;5109271;28;20506;-26
2023/05/25 01:15:37;;;;;;;18.90;7.60;;;6.00;99.90;;;;;;5096566;28;20402;-28
2023/05/25 01:18:04;;;;;;;20.10;8.68;;;6.00;99.90;;;;;;5102065;28;20395;-28
2023/05/25 01:20:29;;;;;;;19.85;7.00;;;5.90;99.90;;;;;;5108089;28;20462;-28
2023/05/25 01:26:22;;;;;;;27.58;9.35;;;5.80;99.90;;;;;;5101198;28;20044;-26
2023/05/25 01:28:51;;;;;;;21.95;8.60;;;5.90;99.90;;;;;;5106740;28;20084;-28
2023/05/25 01:31:24;;;;;;;26.92;9.05;;;5.70;99.90;;;;;;5106815;28;20050;-26
2023/05/25 01:33:51;;;;;;;20.70;8.55;;;5.80;99.90;;;;;;5102161;28;20130;-28
2023/05/25 01:36:18;;;;;;;24.88;8.93;;;5.80;99.90;;;;;;5107216;28;20062;-26
2023/05/25 01:38:44;;;;;;;25.15;8.68;;;5.80;99.90;;;;;;5107209;28;20142;-28
2023/05/25 01:41:10;;;;;;;26.85;8.70;;;5.80;99.90;;;;;;5105222;28;20123;-28
2023/05/25 01:43:35;;;;;;;17.40;8.73;;;5.80;99.90;;;;;;5108060;28;20051;-29
2023/05/25 01:46:34;;;;;;;25.05;9.18;;;5.70;99.90;;;;;;5102658;28;20047;-28
2023/05/25 01:49:36;;;;;;;30.52;10.05;;;5.80;99.90;;;;;;5105892;28;20418;-29
2023/05/25 01:52:18;;;;;;;23.85;9.75;;;5.80;99.90;;;;;;5106281;28;20482;-28
2023/05/25 01:54:50;;;;;;;24.42;8.45;;;5.80;99.90;;;;;;5089052;28;20081;-28
2023/05/25 01:57:18;;;;;;;47.85;9.23;;;5.80;99.90;;;;;;5106602;28;20093;-26
2023/05/25 01:59:46;;;;;;;37.75;8.82;;;5.80;99.90;;;;;;5109049;28;20042;-26
2023/05/25 02:02:14;;;;;;;27.80;7.50;;;5.70;99.90;;;;;;5106153;28;20046;-26
2023/05/25 02:04:41;;;;;;;17.08;7.63;;;5.80;99.90;;;;;;5108465;28;20495;-28
2023/05/25 02:07:07;;;;;;;17.77;6.43;;;5.70;99.90;;;;;;5109240;28;20173;-27
2023/05/25 02:09:33;;;;;;;37.63;6.30;;;5.60;99.90;;;;;;5103262;28;20134;-28
2023/05/25 02:11:58;;;;;;;17.45;4.78;;;5.60;99.90;;;;;;5089579;28;20075;-28
2023/05/25 02:14:24;;;;;;;15.57;4.45;;;5.60;99.90;;;;;;5105638;28;20039;-28
2023/05/25 02:16:50;;;;;;;9.25;4.60;;;5.60;99.90;;;;;;5100674;28;20047;-28
2023/05/25 02:19:16;;;;;;;13.07;5.05;;;5.60;99.90;;;;;;5107047;28;20066;-28
2023/05/25 02:21:42;;;;;;;12.40;5.72;;;5.50;99.90;;;;;;5104992;28;20166;-28
2023/05/25 02:24:09;;;;;;;13.90;6.47;;;5.50;99.90;;;;;;5105683;28;20044;-26
2023/05/25 02:26:38;;;;;;;15.02;5.93;;;5.50;99.90;;;;;;5105644;28;20040;-28
2023/05/25 02:29:05;;;;;;;16.20;6.78;;;5.50;99.90;;;;;;5113378;28;20046;-25
2023/05/25 02:31:31;;;;;;;13.07;7.40;;;5.50;99.90;;;;;;5112374;28;20047;-28
2023/05/25 02:33:57;;;;;;;20.23;7.85;;;5.40;99.90;;;;;;5110772;28;20071;-28
2023/05/25 02:36:23;;;;;;;13.55;7.53;;;5.40;99.90;;;;;;5101776;28;22060;-27
2023/05/25 02:38:50;;;;;;;21.00;8.30;;;5.40;99.90;;;;;;5112828;28;20126;-27
2023/05/25 02:41:19;;;;;;;17.33;7.88;;;5.40;99.90;;;;;;5109205;28;20076;-29
2023/05/25 02:43:44;;;;;;;20.63;8.70;;;5.50;99.90;;;;;;5103598;28;20057;-26
2023/05/25 02:46:10;;;;;;;26.92;10.05;;;5.40;99.90;;;;;;5106500;28;20461;-26
2023/05/25 02:48:36;;;;;;;21.58;9.32;;;5.40;99.90;;;;;;5111008;28;20054;-27
2023/05/25 02:51:02;;;;;;;19.35;9.10;;;5.40;99.90;;;;;;5110835;28;20115;-27
2023/05/25 02:53:28;;;;;;;25.90;10.00;;;5.40;99.90;;;;;;5109643;28;20490;-28
2023/05/25 02:55:55;;;;;;;20.77;9.23;;;5.40;99.90;;;;;;5110006;28;20043;-28
2023/05/25 02:58:21;;;;;;;22.25;9.27;;;5.40;99.90;;;;;;5108565;28;20039;-26
2023/05/25 03:00:48;;;;;;;22.80;9.98;;;5.40;99.90;;;;;;5113173;28;20544;-26
2023/05/25 03:03:14;;;;;;;25.98;10.13;;;5.40;99.90;;;;;;5109024;28;20031;-27
2023/05/25 03:05:39;;;;;;;25.42;9.57;;;5.40;99.90;;;;;;5111106;28;20054;-27
2023/05/25 03:08:05;;;;;;;37.63;12.52;;;5.40;99.90;;;;;;5104459;28;20054;-27
2023/05/25 03:10:31;;;;;;;88.90;14.25;;;5.40;99.90;;;;;;5103519;28;20079;-28
2023/05/25 03:12:56;;;;;;;110.40;14.80;;;5.40;99.90;;;;;;5111195;28;20047;-29
2023/05/25 03:15:22;;;;;;;67.82;13.15;;;5.50;99.90;;;;;;5106146;28;20554;-25
2023/05/25 03:17:49;;;;;;;50.63;12.95;;;5.60;99.90;;;;;;5111862;28;20046;-28
2023/05/25 03:20:15;;;;;;;200.90;17.00;;;5.70;99.90;;;;;;5108414;28;20078;-26
2023/05/25 03:22:44;;;;;;;299.20;19.05;;;5.70;99.90;;;;;;5107364;28;20040;-27
2023/05/25 03:25:11;;;;;;;400.35;25.75;;;5.80;99.90;;;;;;5105506;28;20032;-28
2023/05/25 03:27:38;;;;;;;340.05;17.85;;;5.90;99.90;;;;;;5107737;28;20089;-27
2023/05/25 03:30:05;;;;;;;310.92;15.80;;;6.00;99.90;;;;;;5110968;28;20119;-24
2023/05/25 03:32:31;;;;;;;317.95;14.30;;;6.00;99.90;;;;;;5128833;27;20411;-26
2023/05/25 03:34:57;;;;;;;69.40;9.85;;;5.90;99.90;;;;;;5109213;28;20079;-25
2023/05/25 03:37:23;;;;;;;180.32;13.45;;;5.90;99.90;;;;;;5107554;28;20040;-27
2023/05/25 03:39:49;;;;;;;306.70;14.90;;;5.80;99.90;;;;;;5110675;28;20043;-27
2023/05/25 03:42:14;;;;;;;260.10;14.18;;;5.80;99.90;;;;;;5105009;28;20540;-25
2023/05/25 03:44:40;;;;;;;273.58;13.23;;;5.70;99.90;;;;;;5112266;28;20502;-27
2023/05/25 03:47:06;;;;;;;178.52;9.52;;;5.70;99.90;;;;;;5108587;28;20054;-27
2023/05/25 03:49:32;;;;;;;204.10;12.60;;;5.60;99.90;;;;;;5105146;28;20398;-28
2023/05/25 03:52:00;;;;;;;201.95;10.00;;;5.60;99.90;;;;;;5110795;28;20062;-27
2023/05/25 03:54:26;;;;;;;203.57;11.05;;;5.60;99.90;;;;;;5110614;28;20149;-26
2023/05/25 03:56:52;;;;;;;152.25;9.15;;;5.50;99.90;;;;;;5109724;28;20051;-27
2023/05/25 03:59:18;;;;;;;217.13;10.43;;;5.50;99.90;;;;;;5105636;28;20044;-27
2023/05/25 04:01:44;;;;;;;147.90;7.85;;;5.50;99.90;;;;;;5106824;28;20055;-27
2023/05/25 04:04:10;;;;;;;123.05;9.23;;;5.60;99.90;;;;;;5109950;28;20505;-26
2023/05/25 04:06:36;;;;;;;129.32;8.07;;;5.70;99.90;;;;;;5101831;28;20043;-27
2023/05/25 04:09:03;;;;;;;97.80;8.02;;;5.80;99.90;;;;;;5093565;28;20044;-27
2023/05/25 04:11:29;;;;;;;124.20;9.68;;;5.90;99.90;;;;;;5107327;28;20052;-27
2023/05/25 04:13:55;;;;;;;85.80;8.23;;;6.00;99.90;;;;;;5106914;28;20039;-26
2023/05/25 04:16:21;;;;;;;145.10;12.25;;;6.10;99.90;;;;;;5100986;28;20051;-25
2023/05/25 04:18:46;;;;;;;129.27;10.65;;;6.20;99.90;;;;;;5102767;28;20100;-27
2023/05/25 04:21:12;;;;;;;143.90;11.15;;;6.20;99.90;;;;;;5107477;28;20044;-26
2023/05/25 04:23:38;;;;;;;89.88;9.38;;;6.40;99.90;;;;;;5108719;28;20035;-27
2023/05/25 04:26:04;;;;;;;81.88;9.57;;;6.40;99.90;;;;;;5106997;28;20040;-24
2023/05/25 04:28:31;;;;;;;64.03;9.23;;;6.50;99.90;;;;;;5108526;28;20096;-27
2023/05/25 04:30:57;;;;;;;21.02;9.15;;;6.50;99.90;;;;;;5111754;28;20534;-28
2023/05/25 04:33:23;;;;;;;81.30;10.77;;;6.60;99.90;;;;;;5103236;28;20170;-27
2023/05/25 04:35:49;;;;;;;27.70;9.13;;;6.60;99.90;;;;;;5102156;28;20040;-27
2023/05/25 04:38:19;;;;;;;94.57;14.10;;;6.60;99.90;;;;;;5108277;28;20453;-26
2023/05/25 04:40:45;;;;;;;53.60;11.20;;;6.70;99.90;;;;;;5105975;28;20047;-25
2023/05/25 04:43:12;;;;;;;33.47;11.23;;;6.70;99.90;;;;;;5109337;28;20432;-26
2023/05/25 04:45:38;;;;;;;22.33;10.55;;;6.80;99.90;;;;;;5101198;28;20421;-27
2023/05/25 04:48:04;;;;;;;21.08;11.13;;;6.90;99.90;;;;;;5107098;28;20146;-25
2023/05/25 04:50:29;;;;;;;26.95;11.02;;;7.00;99.90;;;;;;5106034;28;20396;-27
2023/05/25 04:52:55;;;;;;;26.85;12.07;;;7.10;99.90;;;;;;5108641;28;20099;-26
2023/05/25 04:55:21;;;;;;;24.20;12.52;;;7.30;99.90;;;;;;5106619;28;20047;-25
2023/05/25 04:57:47;;;;;;;27.45;13.43;;;7.40;99.90;;;;;;5110898;28;20555;-26
2023/05/25 05:00:14;;;;;;;22.45;12.70;;;7.60;99.90;;;;;;5107182;28;20092;-26
2023/05/25 05:02:40;;;;;;;28.17;12.80;;;7.70;99.90;;;;;;5110012;28;20054;-25
2023/05/25 05:05:06;;;;;;;36.08;14.73;;;7.80;99.90;;;;;;5108084;28;20397;-28
2023/05/25 05:07:32;;;;;;;27.55;14.10;;;8.00;99.90;;;;;;5109153;28;20040;-30
2023/05/25 05:09:58;;;;;;;28.75;14.57;;;8.20;99.90;;;;;;5106460;28;20402;-28
2023/05/25 05:12:23;;;;;;;34.92;15.57;;;8.40;99.90;;;;;;5106036;28;20059;-28
2023/05/25 05:14:49;;;;;;;41.38;17.60;;;8.60;99.90;;;;;;5108017;28;20490;-28
2023/05/25 05:17:16;;;;;;;33.50;15.98;;;8.90;99.90;;;;;;5105870;28;20040;-27
2023/05/25 05:19:42;;;;;;;34.88;16.45;;;9.10;99.90;;;;;;5106828;28;20433;-28
2023/05/25 05:22:08;;;;;;;36.47;17.42;;;9.30;99.90;;;;;;5104180;28;20036;-27
2023/05/25 05:24:34;;;;;;;40.17;18.10;;;9.50;99.90;;;;;;5105490;28;20046;-28
2023/05/25 05:27:00;;;;;;;43.72;17.92;;;9.80;99.90;;;;;;5106043;28;20039;-28
2023/05/25 05:29:27;;;;;;;40.78;17.25;;;10.10;99.90;;;;;;5109144;28;20035;-26
2023/05/25 05:31:54;;;;;;;40.75;17.70;;;10.30;99.90;;;;;;5108098;27;20575;-28
2023/05/25 05:34:20;;;;;;;39.75;17.15;;;10.50;99.90;;;;;;5107103;28;20035;-27
2023/05/25 05:36:46;;;;;;;36.83;17.90;;;10.70;99.90;;;;;;5108684;28;20047;-26
2023/05/25 05:39:12;;;;;;;39.92;16.33;;;10.90;99.90;;;;;;5104489;28;20032;-26
2023/05/25 05:41:37;;;;;;;36.00;16.10;;;11.10;99.90;;;;;;5106495;28;20036;-28
2023/05/25 05:44:03;;;;;;;33.13;14.25;;;11.30;99.90;;;;;;5106939;28;20061;-25
2023/05/25 05:46:29;;;;;;;30.75;14.18;;;11.50;99.90;;;;;;5098650;28;20390;-27
2023/05/25 05:48:55;;;;;;;30.48;11.93;;;11.70;99.90;;;;;;5104524;28;20040;-28
2023/05/25 05:51:20;;;;;;;24.35;10.68;;;11.80;99.90;;;;;;5104594;28;20506;-29
2023/05/25 05:53:46;;;;;;;26.15;10.30;;;11.90;99.90;;;;;;5111298;27;20047;-29
2023/05/25 05:56:18;;;;;;;24.00;9.48;;;12.10;99.90;;;;;;5107493;28;20051;-28
2023/05/25 05:58:46;;;;;;;24.30;8.48;;;12.20;99.90;;;;;;5107330;28;20042;-29
2023/05/25 06:01:11;;;;;;;21.80;7.82;;;12.30;99.90;;;;;;5106404;28;20124;-27
2023/05/25 06:03:38;;;;;;;20.23;6.10;;;12.40;99.90;;;;;;5108236;28;20546;-28
2023/05/25 06:06:04;;;;;;;20.48;6.65;;;12.50;99.90;;;;;;5102401;28;20051;-25
2023/05/25 06:08:29;;;;;;;20.75;6.10;;;12.60;99.90;;;;;;5108773;28;20104;-29
2023/05/25 06:10:55;;;;;;;15.90;5.63;;;12.80;99.90;;;;;;5105804;28;20076;-28
2023/05/25 06:13:21;;;;;;;16.50;5.05;;;12.90;99.90;;;;;;5106334;28;20036;-28
2023/05/25 06:15:47;;;;;;;14.63;4.93;;;13.00;99.90;;;;;;5103472;28;20044;-29
2023/05/25 06:18:12;;;;;;;18.70;4.72;;;13.00;99.90;;;;;;5105764;28;20044;-29
2023/05/25 06:20:38;;;;;;;14.90;4.60;;;13.10;99.90;;;;;;5106046;28;20494;-28
2023/05/25 06:23:04;;;;;;;18.77;4.63;;;13.20;99.90;;;;;;5102668;28;20379;-28
2023/05/25 06:25:29;;;;;;;16.42;4.40;;;13.30;99.90;;;;;;5104336;28;20054;-28
2023/05/25 06:27:56;;;;;;;16.25;4.93;;;13.40;99.90;;;;;;5108010;28;20047;-28
2023/05/25 06:30:22;;;;;;;19.67;4.30;;;13.50;99.90;;;;;;5111641;28;20044;-29
2023/05/25 06:32:48;;;;;;;17.17;4.30;;;13.50;99.90;;;;;;5098904;28;20036;-29
2023/05/25 06:35:18;;;;;;;21.73;4.78;;;13.50;99.90;;;;;;5105542;28;20075;-27
2023/05/25 06:37:48;;;;;;;19.65;5.00;;;13.60;99.90;;;;;;5106462;28;20051;-27
2023/05/25 06:40:14;;;;;;;20.48;5.10;;;13.80;99.90;;;;;;5100090;28;20051;-30
2023/05/25 06:42:40;;;;;;;17.02;4.53;;;13.80;2.70;;;;;;5106866;28;20050;-30
2023/05/25 06:45:07;;;;;;;15.85;5.20;;;13.90;1.00;;;;;;5104931;28;20048;-27
2023/05/25 06:47:33;;;;;;;13.63;3.78;;;13.90;99.90;;;;;;5105909;28;20050;-29
2023/05/25 06:49:59;;;;;;;14.27;3.63;;;14.10;99.90;;;;;;5105636;28;20118;-26
2023/05/25 06:52:27;;;;;;;16.00;3.97;;;14.40;99.90;;;;;;5104191;28;20514;-28
2023/05/25 06:54:54;;;;;;;12.40;4.00;;;14.80;87.50;;;;;;5101032;28;20490;-28
2023/05/25 06:57:23;;;;;;;12.18;3.83;;;15.00;1.00;;;;;;5099102;28;20059;-28
2023/05/25 06:59:49;;;;;;;20.30;5.95;;;15.00;99.90;;;;;;5105000;28;20093;-28
2023/05/25 07:02:17;;;;;;;12.18;3.38;;;15.00;99.90;;;;;;5107967;28;20048;-29
2023/05/25 07:04:43;;;;;;;13.65;4.28;;;15.00;99.90;;;;;;5100855;28;20047;-27
2023/05/25 07:07:10;;;;;;;13.38;3.78;;;15.00;1.00;;;;;;5106560;28;20043;-29
2023/05/25 07:09:37;;;;;;;19.92;4.43;;;15.30;35.20;;;;;;5106265;28;20051;-29
2023/05/25 07:12:06;;;;;;;17.33;4.22;;;15.30;1.00;;;;;;5103990;28;20048;-28
2023/05/25 07:14:33;;;;;;;17.75;4.55;;;15.20;99.90;;;;;;5110762;28;20032;-28
2023/05/25 07:16:59;;;;;;;21.67;4.05;;;14.90;1.00;;;;;;5111617;28;20129;-29
2023/05/25 07:19:25;;;;;;;21.02;4.65;;;15.20;99.90;;;;;;5110239;28;20120;-29
2023/05/25 07:21:50;;;;;;;26.75;5.03;;;15.30;99.90;;;;;;5112597;28;20471;-28
2023/05/25 07:24:17;;;;;;;18.48;4.53;;;14.90;99.90;;;;;;5099865;28;20119;-26
2023/05/25 07:26:43;;;;;;;22.67;4.68;;;14.50;99.90;;;;;;5108846;28;20086;-29
2023/05/25 07:29:09;;;;;;;18.25;4.28;;;14.50;99.90;;;;;;5101772;28;20433;-27
2023/05/25 07:31:35;;;;;;;19.02;4.53;;;14.80;99.90;;;;;;5101781;28;20071;-29
2023/05/25 07:34:01;;;;;;;19.25;5.10;;;15.10;99.90;;;;;;5104012;28;20490;-27
2023/05/25 07:36:26;;;;;;;23.35;5.78;;;14.90;1.00;;;;;;5108163;28;20044;-28
2023/05/25 07:38:52;;;;;;;22.02;4.30;;;15.10;99.90;;;;;;5108178;28;20123;-28
2023/05/25 07:41:18;;;;;;;23.83;5.57;;;14.90;99.90;;;;;;5107162;28;20040;-29
2023/05/25 07:43:44;;;;;;;19.48;4.32;;;15.20;99.90;;;;;;5105070;28;20102;-28
2023/05/25 07:46:10;;;;;;;25.02;4.45;;;15.30;99.90;;;;;;5104970;28;20048;-26
2023/05/25 07:48:36;;;;;;;21.70;4.90;;;15.10;99.90;;;;;;5106553;28;20039;-28
2023/05/25 07:51:02;;;;;;;20.20;4.47;;;14.80;99.90;;;;;;5104617;28;20139;-29
2023/05/25 07:53:27;;;;;;;25.38;5.65;;;14.70;99.90;;;;;;5109253;28;20043;-29
2023/05/25 07:55:53;;;;;;;17.83;4.63;;;15.70;1.00;;;;;;5104910;28;20089;-29
2023/05/25 07:58:19;;;;;;;30.65;6.03;;;15.80;99.90;;;;;;5111912;28;20092;-30
2023/05/25 08:00:44;;;;;;;25.60;5.18;;;16.00;99.90;;;;;;5107856;28;20047;-28
2023/05/25 08:03:10;;;;;;;22.45;4.97;;;16.60;99.90;;;;;;5107750;28;20043;-29
2023/05/25 08:05:36;;;;;;;21.70;5.20;;;16.60;1.00;;;;;;5107338;28;20048;-28
2023/05/25 08:08:02;;;;;;;24.27;5.28;;;16.60;1.00;;;;;;5107594;28;20487;-29
2023/05/25 08:10:31;;;;;;;16.40;3.75;;;16.40;99.90;;;;;;5107519;28;20050;-24
2023/05/25 08:12:57;;;;;;;21.65;5.00;;;16.30;99.90;;;;;;5104788;28;20077;-29
2023/05/25 08:15:23;;;;;;;18.85;5.07;;;16.40;99.90;;;;;;5105556;28;20043;-28
2023/05/25 08:17:49;;;;;;;22.27;5.32;;;16.90;99.90;;;;;;5102978;28;20044;-26
2023/05/25 08:20:16;;;;;;;19.15;4.85;;;17.40;1.00;;;;;;5110950;28;20581;-29
2023/05/25 08:22:44;;;;;;;22.08;5.22;;;17.70;99.90;;;;;;5109123;28;20158;-27
2023/05/25 08:25:10;;;;;;;21.55;4.88;;;18.40;99.90;;;;;;5109481;28;20058;-27
2023/05/25 08:27:36;;;;;;;19.25;4.10;;;18.50;99.90;;;;;;5104286;28;20040;-30
2023/05/25 08:30:04;;;;;;;26.83;5.72;;;18.20;99.90;;;;;;5102926;28;20040;-28
2023/05/25 08:32:30;;;;;;;21.63;4.72;;;18.40;99.90;;;;;;5106691;28;20059;-30
2023/05/25 08:34:56;;;;;;;21.00;4.72;;;18.70;99.90;;;;;;5101218;28;20438;-29
2023/05/25 08:37:23;;;;;;;24.33;5.18;;;18.90;99.90;;;;;;5094946;28;20043;-28
2023/05/25 08:39:49;;;;;;;23.55;4.95;;;19.00;95.20;;;;;;5111396;28;20478;-29
2023/05/25 08:42:15;;;;;;;17.73;4.05;;;18.40;8.00;;;;;;5102809;28;20047;-29
2023/05/25 08:44:41;;;;;;;21.33;5.15;;;17.90;47.70;;;;;;5106292;28;20093;-29
2023/05/25 08:47:07;;;;;;;21.25;5.07;;;17.50;99.90;;;;;;5115216;28;20047;-29
2023/05/25 08:49:43;;;;;;;24.15;5.63;;;17.30;99.90;;;;;;5115485;28;20058;-28
2023/05/25 08:52:13;;;;;;;21.42;4.93;;;16.80;96.40;;;;;;5102954;28;20067;-29
2023/05/25 08:54:42;;;;;;;22.55;4.75;;;16.40;99.90;;;;;;5094841;28;20089;-29
2023/05/25 08:57:21;;;;;;;23.02;4.78;;;17.10;99.90;;;;;;5108288;28;20043;-29
2023/05/25 09:00:10;;;;;;;20.05;5.05;;;17.20;99.90;;;;;;5108659;28;20576;-31
2023/05/25 09:02:49;;;;;;;17.42;4.45;;;17.00;1.00;;;;;;5113128;27;20042;-30
2023/05/25 09:05:16;;;;;;;15.25;4.53;;;17.30;89.20;;;;;;5098133;28;20043;-29
2023/05/25 09:07:46;;;;;;;18.08;4.43;;;17.70;99.90;;;;;;5101041;28;20050;-30
2023/05/25 09:10:13;;;;;;;24.38;4.75;;;17.30;1.00;;;;;;5091135;28;20499;-29
2023/05/25 09:12:40;;;;;;;23.02;4.90;;;17.30;99.90;;;;;;5097691;28;20051;-29
2023/05/25 09:15:09;;;;;;;16.38;3.90;;;17.80;61.50;;;;;;5099448;28;20080;-28
2023/05/25 09:17:34;;;;;;;16.23;4.30;;;18.00;1.00;;;;;;5099836;28;20043;-29
2023/05/25 09:20:00;;;;;;;23.08;4.80;;;18.40;1.00;;;;;;5112926;28;20108;-29
2023/05/25 09:22:26;;;;;;;15.30;3.70;;;18.60;1.00;;;;;;5112520;28;20061;-30
2023/05/25 09:24:52;;;;;;;16.25;4.32;;;18.60;1.00;;;;;;5102630;28;20505;-30
2023/05/25 09:27:22;;;;;;;15.20;3.92;;;19.20;1.00;;;;;;5106804;28;20143;-29
2023/05/25 09:29:49;;;;;;;18.92;4.88;;;19.80;1.00;;;;;;5112593;28;20051;-29
2023/05/25 09:32:16;;;;;;;18.00;4.53;;;19.60;1.00;;;;;;5114929;28;20044;-29
2023/05/25 09:34:43;;;;;;;20.98;5.07;;;18.90;1.00;;;;;;5114210;28;20035;-29
2023/05/25 09:37:14;;;;;;;20.52;4.80;;;19.30;1.00;;;;;;5100241;28;20098;-29
2023/05/25 09:39:41;;;;;;;22.42;5.75;;;19.40;1.00;;;;;;5106718;28;20050;-28
2023/05/25 09:42:07;;;;;;;18.73;4.50;;;19.60;1.00;;;;;;5092665;28;20101;-29
2023/05/25 09:44:33;;;;;;;18.92;4.32;;;19.90;1.00;;;;;;5093843;28;20514;-30
2023/05/25 09:46:59;;;;;;;23.25;4.95;;;20.00;1.00;;;;;;5095536;28;20131;-30
2023/05/25 09:49:25;;;;;;;20.35;4.50;;;19.90;1.00;;;;;;5100990;28;20039;-26
2023/05/25 09:51:51;;;;;;;14.45;4.13;;;19.60;1.00;;;;;;5111934;28;20498;-27
2023/05/25 09:54:17;;;;;;;20.52;4.90;;;19.50;1.00;;;;;;5109283;28;20039;-30
2023/05/25 09:56:44;;;;;;;18.10;4.90;;;19.60;1.00;;;;;;5100430;28;20051;-29
2023/05/25 09:59:11;;;;;;;23.50;5.35;;;20.20;1.00;;;;;;5100425;28;20048;-27
2023/05/25 10:01:37;;;;;;;17.70;4.75;;;19.90;1.00;;;;;;5095811;28;20095;-29
2023/05/25 10:04:03;;;;;;;19.48;4.65;;;19.90;1.00;;;;;;5094168;28;20079;-31
2023/05/25 10:06:30;;;;;;;21.15;4.43;;;19.70;1.00;;;;;;5103248;28;20036;-29
2023/05/25 10:08:57;;;;;;;20.27;5.57;;;19.60;1.00;;;;;;5106729;28;20047;-29
2023/05/25 10:11:25;;;;;;;17.30;4.88;;;20.20;1.00;;;;;;5113842;28;20047;-29
2023/05/25 10:13:53;;;;;;;20.20;4.63;;;20.70;1.00;;;;;;5113762;28;20055;-29
2023/05/25 10:16:24;;;;;;;24.15;4.68;;;20.20;1.00;;;;;;5103431;28;20076;-29
2023/05/25 10:19:02;;;;;;;19.92;4.88;;;19.60;1.00;;;;;;5093174;28;20044;-28
2023/05/25 10:21:30;;;;;;;17.70;4.53;;;19.00;1.00;;;;;;5092511;28;20040;-29
2023/05/25 10:24:20;;;;;;;19.75;4.68;;;18.50;1.00;;;;;;5092494;28;20063;-26
2023/05/25 10:26:52;;;;;;;19.83;4.72;;;18.10;1.00;;;;;;5104767;28;20044;-30
2023/05/25 10:29:19;;;;;;;20.35;5.00;;;18.80;1.00;;;;;;5102935;28;20380;-30
2023/05/25 10:31:46;;;;;;;18.98;4.40;;;19.20;1.00;;;;;;5113721;28;20501;-30
2023/05/25 10:34:13;;;;;;;21.10;5.28;;;18.80;1.00;;;;;;5097040;28;20386;-30
2023/05/25 10:36:40;;;;;;;25.13;5.40;;;18.30;1.00;;;;;;5095402;28;20059;-30
2023/05/25 10:39:07;;;;;;;24.00;5.35;;;18.00;1.00;;;;;;5092322;28;20463;-30
2023/05/25 10:41:33;;;;;;;18.80;5.03;;;18.50;1.00;;;;;;5093898;28;20063;-27
2023/05/25 10:44:00;;;;;;;17.00;4.35;;;19.50;1.00;;;;;;5113680;28;20044;-30
2023/05/25 10:46:27;;;;;;;21.45;6.47;;;20.00;1.00;;;;;;5116594;28;20105;-30
2023/05/25 10:49:00;;;;;;;26.20;5.75;;;20.50;1.00;;;;;;5117541;28;20059;-31
2023/05/25 10:51:56;;;;;;;18.50;4.63;;;20.00;1.00;;;;;;5109076;28;20384;-30
2023/05/25 10:54:21;;;;;;;20.25;4.85;;;19.40;1.00;;;;;;5096990;28;20040;-29
2023/05/25 10:57:17;;;;;;;28.30;4.88;;;19.80;1.00;;;;;;5104255;28;20055;-29
2023/05/25 10:59:48;;;;;;;23.40;4.55;;;20.60;1.00;;;;;;5090380;28;20392;-32
2023/05/25 11:02:15;;;;;;;16.67;3.70;;;20.20;1.00;;;;;;5105449;28;20050;-29
2023/05/25 11:04:41;;;;;;;19.42;5.68;;;20.30;1.00;;;;;;5103437;28;20040;-29
2023/05/25 11:07:13;;;;;;;17.90;4.47;;;20.20;1.00;;;;;;5107253;28;20070;-30
2023/05/25 11:09:43;;;;;;;22.98;4.82;;;19.80;1.00;;;;;;5104319;28;20044;-29
2023/05/25 11:12:20;;;;;;;21.27;5.03;;;19.10;1.00;;;;;;5101571;28;20083;-30
2023/05/25 11:15:10;;;;;;;18.42;5.13;;;18.70;1.00;;;;;;5096560;28;20037;-29
2023/05/25 11:18:13;;;;;;;22.27;4.85;;;18.20;1.00;;;;;;5098098;28;20044;-30
2023/05/25 11:20:38;;;;;;;24.60;4.97;;;18.50;1.00;;;;;;5087579;28;21288;-28
2023/05/25 11:23:24;;;;;;;21.58;5.18;;;18.50;1.00;;;;;;5104429;28;20047;-30
2023/05/25 11:25:50;;;;;;;19.13;4.50;;;19.10;1.00;;;;;;5100486;28;20055;-29
2023/05/25 11:28:16;;;;;;;17.75;4.53;;;19.50;1.00;;;;;;5096476;28;20044;-29
2023/05/25 11:30:42;;;;;;;20.25;4.18;;;19.90;1.00;;;;;;5095503;28;20044;-29
2023/05/25 11:33:08;;;;;;;19.15;4.50;;;19.70;1.00;;;;;;5098761;28;20042;-28
2023/05/25 11:35:37;;;;;;;23.20;4.65;;;18.90;1.00;;;;;;5118013;27;20055;-29
2023/05/25 11:38:07;;;;;;;17.55;4.38;;;18.60;1.00;;;;;;5104590;28;20079;-29
2023/05/25 11:40:33;;;;;;;16.15;4.55;;;18.00;1.00;;;;;;5096153;28;20399;-31
2023/05/25 11:43:00;;;;;;;21.38;5.35;;;18.00;1.00;;;;;;5111101;28;20496;-30
2023/05/25 11:45:32;;;;;;;19.70;4.72;;;18.90;1.00;;;;;;5114306;28;20036;-30
2023/05/25 11:47:58;;;;;;;19.95;4.68;;;19.60;1.00;;;;;;5113256;28;20047;-29
2023/05/25 11:50:25;;;;;;;17.77;5.07;;;18.70;1.00;;;;;;5107828;28;20113;-31
2023/05/25 11:52:51;;;;;;;20.08;5.28;;;18.40;1.00;;;;;;5107692;28;20098;-29
2023/05/25 11:55:17;;;;;;;20.73;4.22;;;17.90;1.00;;;;;;5111434;28;20089;-29
2023/05/25 11:57:43;;;;;;;17.85;4.22;;;18.20;1.00;;;;;;5115202;28;20502;-30
2023/05/25 12:00:10;;;;;;;20.83;4.63;;;19.10;1.00;;;;;;5116059;28;20043;-30
2023/05/25 12:02:42;;;;;;;18.63;4.75;;;19.40;1.00;;;;;;5115830;28;20122;-30
2023/05/25 12:05:10;;;;;;;19.55;4.55;;;19.20;1.00;;;;;;5115193;28;20043;-29
2023/05/25 12:07:43;;;;;;;19.05;4.35;;;19.00;1.00;;;;;;5115810;28;20127;-29
2023/05/25 12:10:13;;;;;;;;;;;19.00;1.00;;;;;;5100034;27;20499;-30
2023/05/25 12:12:46;;;;;;;19.92;5.07;;;19.40;1.00;;;;;;5097616;28;19920;-30
2023/05/25 12:15:15;;;;;;;19.60;4.72;;;19.90;1.00;;;;;;5085177;28;20079;-30
2023/05/25 12:17:42;;;;;;;16.85;4.65;;;19.80;1.00;;;;;;5095395;28;20048;-30
2023/05/25 12:20:09;;;;;;;21.15;5.07;;;19.40;1.00;;;;;;5095436;28;20052;-29
2023/05/25 12:22:36;;;;;;;22.35;5.72;;;18.80;1.00;;;;;;5103591;28;20047;-30
2023/05/25 12:25:05;;;;;;;18.63;4.90;;;18.40;1.00;;;;;;5115426;27;20044;-30
2023/05/25 12:27:31;;;;;;;21.98;5.18;;;18.50;1.00;;;;;;5109448;27;20046;-30
2023/05/25 12:29:58;;;;;;;20.80;5.28;;;18.20;1.00;;;;;;5115490;28;20043;-30
2023/05/25 12:32:23;;;;;;;15.02;3.80;;;18.00;1.00;;;;;;5097638;28;20047;-29
2023/05/25 12:34:49;;;;;;;21.85;5.65;;;17.80;1.00;;;;;;5097206;28;20490;-30
2023/05/25 12:37:20;;;;;;;17.75;5.22;;;18.40;1.00;;;;;;5108637;28;20423;-30
2023/05/25 12:39:47;;;;;;;19.05;5.10;;;19.10;1.00;;;;;;5110891;28;20490;-30
2023/05/25 12:42:14;;;;;;;22.80;5.53;;;19.40;1.00;;;;;;5115361;28;20122;-30
2023/05/25 12:44:41;;;;;;;17.95;4.90;;;19.90;1.00;;;;;;5115311;27;20062;-30
2023/05/25 12:47:18;;;;;;;18.45;4.90;;;20.00;1.00;;;;;;5115308;28;20100;-29
2023/05/25 12:49:52;;;;;;;19.70;4.97;;;19.80;1.00;;;;;;5107943;28;20148;-28